sensor_id;sensor_type;location;lat;lon;timestamp;P1;durP1;ratioP1;P2;durP2;ratioP2
8540;SDS011;4308;51.294;6.590;2023-11-18T00:02:20;65.73;;;35.00;;
8540;SDS011;4308;51.294;6.590;2023-11-18T00:04:47;75.37;;;36.13;;
8540;SDS011;4308;51.294;6.590;2023-11-18T00:07:15;72.37;;;35.70;;
8540;SDS011;4308;51.294;6.590;2023-11-18T00:09:43;82.90;;;37.93;;
8540;SDS011;4308;51.294;6.590;2023-11-18T00:12:10;100.47;;;41.13;;
8540;SDS011;4308;51.294;6.590;2023-11-18T00:14:38;81.87;;;38.20;;
8540;SDS011;4308;51.294;6.590;2023-11-18T00:17:09;87.27;;;38.27;;
8540;SDS011;4308;51.294;6.590;2023-11-18T00:19:36;82.83;;;38.40;;
8540;SDS011;4308;51.294;6.590;2023-11-18T00:22:04;88.43;;;38.80;;
8540;SDS011;4308;51.294;6.590;2023-11-18T00:24:32;101.00;;;40.83;;
8540;SDS011;4308;51.294;6.590;2023-11-18T00:26:59;87.83;;;38.80;;
8540;SDS011;4308;51.294;6.590;2023-11-18T00:29:27;97.60;;;39.90;;
8540;SDS011;4308;51.294;6.590;2023-11-18T00:31:55;89.40;;;39.97;;
8540;SDS011;4308;51.294;6.590;2023-11-18T00:34:23;84.03;;;38.70;;
8540;SDS011;4308;51.294;6.590;2023-11-18T00:36:51;89.80;;;38.97;;
8540;SDS011;4308;51.294;6.590;2023-11-18T00:39:18;90.23;;;39.10;;
8540;SDS011;4308;51.294;6.590;2023-11-18T00:41:46;91.10;;;39.33;;
8540;SDS011;4308;51.294;6.590;2023-11-18T00:44:13;75.67;;;36.10;;
8540;SDS011;4308;51.294;6.590;2023-11-18T00:46:41;88.77;;;40.03;;
8540;SDS011;4308;51.294;6.590;2023-11-18T00:49:09;85.17;;;37.37;;
8540;SDS011;4308;51.294;6.590;2023-11-18T00:51:36;88.30;;;37.83;;
8540;SDS011;4308;51.294;6.590;2023-11-18T00:54:04;84.63;;;36.87;;
8540;SDS011;4308;51.294;6.590;2023-11-18T00:56:32;87.27;;;37.40;;
8540;SDS011;4308;51.294;6.590;2023-11-18T00:58:59;87.30;;;38.13;;
8540;SDS011;4308;51.294;6.590;2023-11-18T01:01:27;83.43;;;36.60;;
8540;SDS011;4308;51.294;6.590;2023-11-18T01:03:55;80.23;;;36.10;;
8540;SDS011;4308;51.294;6.590;2023-11-18T01:06:22;84.97;;;38.67;;
8540;SDS011;4308;51.294;6.590;2023-11-18T01:08:50;81.93;;;37.23;;
8540;SDS011;4308;51.294;6.590;2023-11-18T01:11:18;84.83;;;37.47;;
8540;SDS011;4308;51.294;6.590;2023-11-18T01:13:46;83.17;;;37.23;;
8540;SDS011;4308;51.294;6.590;2023-11-18T01:16:14;93.20;;;38.50;;
8540;SDS011;4308;51.294;6.590;2023-11-18T01:18:42;89.80;;;39.67;;
8540;SDS011;4308;51.294;6.590;2023-11-18T01:21:10;83.03;;;37.70;;
8540;SDS011;4308;51.294;6.590;2023-11-18T01:23:38;77.40;;;36.67;;
8540;SDS011;4308;51.294;6.590;2023-11-18T01:26:06;83.43;;;38.60;;
8540;SDS011;4308;51.294;6.590;2023-11-18T01:28:33;83.67;;;37.03;;
8540;SDS011;4308;51.294;6.590;2023-11-18T01:31:02;87.13;;;36.90;;
8540;SDS011;4308;51.294;6.590;2023-11-18T01:33:30;87.87;;;37.80;;
8540;SDS011;4308;51.294;6.590;2023-11-18T01:35:58;95.23;;;39.40;;
8540;SDS011;4308;51.294;6.590;2023-11-18T01:38:26;83.83;;;37.73;;
8540;SDS011;4308;51.294;6.590;2023-11-18T01:40:53;81.63;;;36.87;;
8540;SDS011;4308;51.294;6.590;2023-11-18T01:43:21;88.70;;;38.10;;
8540;SDS011;4308;51.294;6.590;2023-11-18T01:45:48;89.17;;;38.93;;
8540;SDS011;4308;51.294;6.590;2023-11-18T01:48:16;82.93;;;37.60;;
8540;SDS011;4308;51.294;6.590;2023-11-18T01:50:44;78.70;;;35.23;;
8540;SDS011;4308;51.294;6.590;2023-11-18T01:53:11;100.57;;;38.80;;
8540;SDS011;4308;51.294;6.590;2023-11-18T01:55:39;78.63;;;34.87;;
8540;SDS011;4308;51.294;6.590;2023-11-18T01:58:07;88.27;;;37.37;;
8540;SDS011;4308;51.294;6.590;2023-11-18T02:00:39;72.43;;;33.87;;
8540;SDS011;4308;51.294;6.590;2023-11-18T02:03:08;67.70;;;33.63;;
8540;SDS011;4308;51.294;6.590;2023-11-18T02:05:36;66.20;;;33.13;;
8540;SDS011;4308;51.294;6.590;2023-11-18T02:08:04;72.13;;;33.60;;
8540;SDS011;4308;51.294;6.590;2023-11-18T02:10:32;71.77;;;33.03;;
8540;SDS011;4308;51.294;6.590;2023-11-18T02:13:11;67.40;;;32.30;;
8540;SDS011;4308;51.294;6.590;2023-11-18T02:15:40;72.47;;;32.87;;
8540;SDS011;4308;51.294;6.590;2023-11-18T02:18:08;61.07;;;30.43;;
8540;SDS011;4308;51.294;6.590;2023-11-18T02:20:36;61.93;;;31.20;;
8540;SDS011;4308;51.294;6.590;2023-11-18T02:23:05;74.17;;;32.87;;
8540;SDS011;4308;51.294;6.590;2023-11-18T02:25:33;68.33;;;32.90;;
8540;SDS011;4308;51.294;6.590;2023-11-18T02:28:01;65.97;;;32.40;;
8540;SDS011;4308;51.294;6.590;2023-11-18T02:30:28;74.53;;;32.93;;
8540;SDS011;4308;51.294;6.590;2023-11-18T02:33:43;65.33;;;33.00;;
8540;SDS011;4308;51.294;6.590;2023-11-18T02:35:46;66.53;;;32.17;;
8540;SDS011;4308;51.294;6.590;2023-11-18T02:38:16;65.77;;;32.37;;
8540;SDS011;4308;51.294;6.590;2023-11-18T02:40:45;73.90;;;34.30;;
8540;SDS011;4308;51.294;6.590;2023-11-18T02:43:13;63.83;;;31.60;;
8540;SDS011;4308;51.294;6.590;2023-11-18T02:45:42;64.07;;;31.40;;
8540;SDS011;4308;51.294;6.590;2023-11-18T02:48:10;65.10;;;31.07;;
8540;SDS011;4308;51.294;6.590;2023-11-18T02:50:37;68.80;;;30.90;;
8540;SDS011;4308;51.294;6.590;2023-11-18T02:53:05;63.00;;;31.33;;
8540;SDS011;4308;51.294;6.590;2023-11-18T02:55:32;69.93;;;31.30;;
8540;SDS011;4308;51.294;6.590;2023-11-18T02:58:00;57.37;;;28.93;;
8540;SDS011;4308;51.294;6.590;2023-11-18T03:00:31;64.77;;;29.90;;
8540;SDS011;4308;51.294;6.590;2023-11-18T03:02:59;57.90;;;27.80;;
8540;SDS011;4308;51.294;6.590;2023-11-18T03:05:26;57.13;;;27.77;;
8540;SDS011;4308;51.294;6.590;2023-11-18T03:07:54;67.30;;;30.10;;
8540;SDS011;4308;51.294;6.590;2023-11-18T03:10:22;59.73;;;27.83;;
8540;SDS011;4308;51.294;6.590;2023-11-18T03:12:53;52.53;;;26.47;;
8540;SDS011;4308;51.294;6.590;2023-11-18T03:15:21;65.83;;;28.77;;
8540;SDS011;4308;51.294;6.590;2023-11-18T03:17:50;62.43;;;26.93;;
8540;SDS011;4308;51.294;6.590;2023-11-18T03:20:19;67.00;;;27.97;;
8540;SDS011;4308;51.294;6.590;2023-11-18T03:22:47;62.70;;;27.70;;
8540;SDS011;4308;51.294;6.590;2023-11-18T03:25:15;57.47;;;28.33;;
8540;SDS011;4308;51.294;6.590;2023-11-18T03:27:43;64.43;;;28.87;;
8540;SDS011;4308;51.294;6.590;2023-11-18T03:30:11;64.60;;;28.60;;
8540;SDS011;4308;51.294;6.590;2023-11-18T03:32:39;65.33;;;28.40;;
8540;SDS011;4308;51.294;6.590;2023-11-18T03:35:07;56.90;;;26.77;;
8540;SDS011;4308;51.294;6.590;2023-11-18T03:37:35;67.67;;;29.93;;
8540;SDS011;4308;51.294;6.590;2023-11-18T03:40:03;73.43;;;30.13;;
8540;SDS011;4308;51.294;6.590;2023-11-18T03:42:31;67.27;;;30.70;;
8540;SDS011;4308;51.294;6.590;2023-11-18T03:44:58;73.23;;;31.53;;
8540;SDS011;4308;51.294;6.590;2023-11-18T03:47:26;68.00;;;30.27;;
8540;SDS011;4308;51.294;6.590;2023-11-18T03:49:53;74.13;;;31.57;;
8540;SDS011;4308;51.294;6.590;2023-11-18T03:52:21;69.67;;;31.33;;
8540;SDS011;4308;51.294;6.590;2023-11-18T03:54:49;65.13;;;29.10;;
8540;SDS011;4308;51.294;6.590;2023-11-18T03:57:16;68.97;;;29.97;;
8540;SDS011;4308;51.294;6.590;2023-11-18T03:59:44;67.23;;;30.50;;
8540;SDS011;4308;51.294;6.590;2023-11-18T04:02:12;70.30;;;30.37;;
8540;SDS011;4308;51.294;6.590;2023-11-18T04:04:39;68.37;;;30.80;;
8540;SDS011;4308;51.294;6.590;2023-11-18T04:07:07;80.93;;;31.57;;
8540;SDS011;4308;51.294;6.590;2023-11-18T04:09:34;71.17;;;30.97;;
8540;SDS011;4308;51.294;6.590;2023-11-18T04:12:02;63.57;;;29.93;;
8540;SDS011;4308;51.294;6.590;2023-11-18T04:14:30;72.73;;;31.07;;
8540;SDS011;4308;51.294;6.590;2023-11-18T04:16:57;68.10;;;32.60;;
8540;SDS011;4308;51.294;6.590;2023-11-18T04:19:25;64.90;;;30.03;;
8540;SDS011;4308;51.294;6.590;2023-11-18T04:21:52;68.77;;;31.23;;
8540;SDS011;4308;51.294;6.590;2023-11-18T04:24:20;70.33;;;30.70;;
8540;SDS011;4308;51.294;6.590;2023-11-18T04:26:47;63.20;;;30.90;;
8540;SDS011;4308;51.294;6.590;2023-11-18T04:29:15;64.83;;;32.53;;
8540;SDS011;4308;51.294;6.590;2023-11-18T04:31:43;61.40;;;30.63;;
8540;SDS011;4308;51.294;6.590;2023-11-18T04:34:10;69.30;;;30.23;;
8540;SDS011;4308;51.294;6.590;2023-11-18T04:36:40;70.00;;;31.13;;
8540;SDS011;4308;51.294;6.590;2023-11-18T04:39:08;66.30;;;30.87;;
8540;SDS011;4308;51.294;6.590;2023-11-18T04:41:35;61.67;;;30.47;;
8540;SDS011;4308;51.294;6.590;2023-11-18T04:44:03;62.07;;;28.97;;
8540;SDS011;4308;51.294;6.590;2023-11-18T04:46:30;62.83;;;29.67;;
8540;SDS011;4308;51.294;6.590;2023-11-18T04:48:58;65.13;;;29.90;;
8540;SDS011;4308;51.294;6.590;2023-11-18T04:51:26;63.00;;;30.90;;
8540;SDS011;4308;51.294;6.590;2023-11-18T04:53:53;67.57;;;30.60;;
8540;SDS011;4308;51.294;6.590;2023-11-18T04:56:21;72.07;;;30.23;;
8540;SDS011;4308;51.294;6.590;2023-11-18T04:58:49;68.03;;;31.53;;
8540;SDS011;4308;51.294;6.590;2023-11-18T05:01:16;65.43;;;30.70;;
8540;SDS011;4308;51.294;6.590;2023-11-18T05:03:44;66.43;;;30.50;;
8540;SDS011;4308;51.294;6.590;2023-11-18T05:06:11;70.27;;;30.63;;
8540;SDS011;4308;51.294;6.590;2023-11-18T05:08:39;67.03;;;29.40;;
8540;SDS011;4308;51.294;6.590;2023-11-18T05:11:07;80.33;;;34.17;;
8540;SDS011;4308;51.294;6.590;2023-11-18T05:13:34;83.00;;;32.83;;
8540;SDS011;4308;51.294;6.590;2023-11-18T05:16:02;72.97;;;30.90;;
8540;SDS011;4308;51.294;6.590;2023-11-18T05:18:30;71.80;;;32.07;;
8540;SDS011;4308;51.294;6.590;2023-11-18T05:20:57;73.17;;;32.83;;
8540;SDS011;4308;51.294;6.590;2023-11-18T05:23:25;79.03;;;33.23;;
8540;SDS011;4308;51.294;6.590;2023-11-18T05:25:52;76.80;;;32.50;;
8540;SDS011;4308;51.294;6.590;2023-11-18T05:28:20;65.20;;;29.80;;
8540;SDS011;4308;51.294;6.590;2023-11-18T05:30:47;73.73;;;31.00;;
8540;SDS011;4308;51.294;6.590;2023-11-18T05:33:15;73.50;;;32.50;;
8540;SDS011;4308;51.294;6.590;2023-11-18T05:35:43;69.10;;;29.80;;
8540;SDS011;4308;51.294;6.590;2023-11-18T05:38:18;65.50;;;30.30;;
8540;SDS011;4308;51.294;6.590;2023-11-18T05:40:45;61.50;;;30.33;;
8540;SDS011;4308;51.294;6.590;2023-11-18T05:43:13;71.10;;;30.67;;
8540;SDS011;4308;51.294;6.590;2023-11-18T05:45:41;63.03;;;30.53;;
8540;SDS011;4308;51.294;6.590;2023-11-18T05:48:08;61.53;;;29.60;;
8540;SDS011;4308;51.294;6.590;2023-11-18T05:50:36;66.80;;;30.67;;
8540;SDS011;4308;51.294;6.590;2023-11-18T05:53:03;61.63;;;29.73;;
8540;SDS011;4308;51.294;6.590;2023-11-18T05:55:31;65.07;;;30.83;;
8540;SDS011;4308;51.294;6.590;2023-11-18T05:57:59;66.70;;;30.03;;
8540;SDS011;4308;51.294;6.590;2023-11-18T06:00:26;60.67;;;28.90;;
8540;SDS011;4308;51.294;6.590;2023-11-18T06:03:04;61.87;;;29.37;;
8540;SDS011;4308;51.294;6.590;2023-11-18T06:05:32;66.37;;;30.60;;
8540;SDS011;4308;51.294;6.590;2023-11-18T06:08:00;56.77;;;29.13;;
8540;SDS011;4308;51.294;6.590;2023-11-18T06:10:28;54.47;;;28.43;;
8540;SDS011;4308;51.294;6.590;2023-11-18T06:12:55;61.33;;;29.07;;
8540;SDS011;4308;51.294;6.590;2023-11-18T06:15:23;58.13;;;28.53;;
8540;SDS011;4308;51.294;6.590;2023-11-18T06:17:51;57.30;;;28.10;;
8540;SDS011;4308;51.294;6.590;2023-11-18T06:20:18;59.83;;;28.87;;
8540;SDS011;4308;51.294;6.590;2023-11-18T06:22:46;53.97;;;26.17;;
8540;SDS011;4308;51.294;6.590;2023-11-18T06:25:13;56.50;;;27.93;;
8540;SDS011;4308;51.294;6.590;2023-11-18T06:27:44;58.83;;;28.40;;
8540;SDS011;4308;51.294;6.590;2023-11-18T06:30:12;60.73;;;28.40;;
8540;SDS011;4308;51.294;6.590;2023-11-18T06:32:39;56.70;;;27.87;;
8540;SDS011;4308;51.294;6.590;2023-11-18T06:35:07;56.77;;;27.23;;
8540;SDS011;4308;51.294;6.590;2023-11-18T06:37:35;58.93;;;26.93;;
8540;SDS011;4308;51.294;6.590;2023-11-18T06:40:03;53.87;;;26.63;;
8540;SDS011;4308;51.294;6.590;2023-11-18T06:42:30;56.53;;;27.43;;
8540;SDS011;4308;51.294;6.590;2023-11-18T06:44:58;51.30;;;28.00;;
8540;SDS011;4308;51.294;6.590;2023-11-18T06:47:25;56.33;;;28.40;;
8540;SDS011;4308;51.294;6.590;2023-11-18T06:49:53;48.77;;;26.13;;
8540;SDS011;4308;51.294;6.590;2023-11-18T06:52:21;50.33;;;27.63;;
8540;SDS011;4308;51.294;6.590;2023-11-18T06:54:48;52.63;;;26.47;;
8540;SDS011;4308;51.294;6.590;2023-11-18T06:57:16;52.57;;;26.77;;
8540;SDS011;4308;51.294;6.590;2023-11-18T06:59:44;55.53;;;28.13;;
8540;SDS011;4308;51.294;6.590;2023-11-18T07:02:11;52.53;;;28.90;;
8540;SDS011;4308;51.294;6.590;2023-11-18T07:04:39;53.10;;;26.07;;
8540;SDS011;4308;51.294;6.590;2023-11-18T07:07:07;49.20;;;25.97;;
8540;SDS011;4308;51.294;6.590;2023-11-18T07:09:34;51.00;;;26.33;;
8540;SDS011;4308;51.294;6.590;2023-11-18T07:12:02;51.13;;;26.43;;
8540;SDS011;4308;51.294;6.590;2023-11-18T07:14:30;48.67;;;25.93;;
8540;SDS011;4308;51.294;6.590;2023-11-18T07:16:58;45.00;;;24.13;;
8540;SDS011;4308;51.294;6.590;2023-11-18T07:19:26;46.33;;;24.53;;
8540;SDS011;4308;51.294;6.590;2023-11-18T07:21:53;42.33;;;23.60;;
8540;SDS011;4308;51.294;6.590;2023-11-18T07:24:21;47.97;;;25.80;;
8540;SDS011;4308;51.294;6.590;2023-11-18T07:26:48;46.90;;;24.40;;
8540;SDS011;4308;51.294;6.590;2023-11-18T07:29:16;43.97;;;24.27;;
8540;SDS011;4308;51.294;6.590;2023-11-18T07:31:44;48.90;;;24.53;;
8540;SDS011;4308;51.294;6.590;2023-11-18T07:34:11;40.97;;;22.93;;
8540;SDS011;4308;51.294;6.590;2023-11-18T07:36:39;42.50;;;23.87;;
8540;SDS011;4308;51.294;6.590;2023-11-18T07:39:07;44.10;;;23.67;;
8540;SDS011;4308;51.294;6.590;2023-11-18T07:41:34;43.57;;;23.83;;
8540;SDS011;4308;51.294;6.590;2023-11-18T07:44:02;38.53;;;22.27;;
8540;SDS011;4308;51.294;6.590;2023-11-18T07:46:30;38.73;;;22.20;;
8540;SDS011;4308;51.294;6.590;2023-11-18T07:48:58;35.80;;;20.93;;
8540;SDS011;4308;51.294;6.590;2023-11-18T07:51:26;39.33;;;21.93;;
8540;SDS011;4308;51.294;6.590;2023-11-18T07:53:54;33.93;;;20.87;;
8540;SDS011;4308;51.294;6.590;2023-11-18T07:56:21;33.17;;;20.00;;
8540;SDS011;4308;51.294;6.590;2023-11-18T07:58:50;33.40;;;19.97;;
8540;SDS011;4308;51.294;6.590;2023-11-18T08:01:17;33.97;;;19.57;;
8540;SDS011;4308;51.294;6.590;2023-11-18T08:03:45;31.77;;;19.87;;
8540;SDS011;4308;51.294;6.590;2023-11-18T08:06:13;33.53;;;21.17;;
8540;SDS011;4308;51.294;6.590;2023-11-18T08:08:40;37.23;;;20.07;;
8540;SDS011;4308;51.294;6.590;2023-11-18T08:11:11;30.43;;;20.20;;
8540;SDS011;4308;51.294;6.590;2023-11-18T08:13:39;33.37;;;20.23;;
8540;SDS011;4308;51.294;6.590;2023-11-18T08:16:07;29.83;;;18.90;;
8540;SDS011;4308;51.294;6.590;2023-11-18T08:18:34;30.60;;;18.93;;
8540;SDS011;4308;51.294;6.590;2023-11-18T08:21:02;32.57;;;18.53;;
8540;SDS011;4308;51.294;6.590;2023-11-18T08:23:30;31.53;;;18.43;;
8540;SDS011;4308;51.294;6.590;2023-11-18T08:25:57;30.47;;;18.37;;
8540;SDS011;4308;51.294;6.590;2023-11-18T08:28:25;29.70;;;18.27;;
8540;SDS011;4308;51.294;6.590;2023-11-18T08:30:53;28.43;;;17.17;;
8540;SDS011;4308;51.294;6.590;2023-11-18T08:33:20;27.10;;;17.37;;
8540;SDS011;4308;51.294;6.590;2023-11-18T08:35:48;28.47;;;17.50;;
8540;SDS011;4308;51.294;6.590;2023-11-18T08:38:16;29.27;;;17.47;;
8540;SDS011;4308;51.294;6.590;2023-11-18T08:40:43;27.20;;;17.43;;
8540;SDS011;4308;51.294;6.590;2023-11-18T08:43:11;29.23;;;17.13;;
8540;SDS011;4308;51.294;6.590;2023-11-18T08:45:39;29.60;;;17.63;;
8540;SDS011;4308;51.294;6.590;2023-11-18T08:48:06;26.83;;;16.40;;
8540;SDS011;4308;51.294;6.590;2023-11-18T08:50:35;26.33;;;16.03;;
8540;SDS011;4308;51.294;6.590;2023-11-18T08:53:03;22.90;;;15.67;;
8540;SDS011;4308;51.294;6.590;2023-11-18T08:55:31;25.70;;;16.60;;
8540;SDS011;4308;51.294;6.590;2023-11-18T08:57:59;24.87;;;16.20;;
8540;SDS011;4308;51.294;6.590;2023-11-18T09:00:27;24.30;;;17.13;;
8540;SDS011;4308;51.294;6.590;2023-11-18T09:02:55;26.77;;;15.77;;
8540;SDS011;4308;51.294;6.590;2023-11-18T09:05:23;27.87;;;16.73;;
8540;SDS011;4308;51.294;6.590;2023-11-18T09:07:50;25.20;;;15.93;;
8540;SDS011;4308;51.294;6.590;2023-11-18T09:10:18;24.87;;;15.67;;
8540;SDS011;4308;51.294;6.590;2023-11-18T09:12:47;24.53;;;14.37;;
8540;SDS011;4308;51.294;6.590;2023-11-18T09:15:14;22.83;;;14.80;;
8540;SDS011;4308;51.294;6.590;2023-11-18T09:17:42;26.30;;;15.83;;
8540;SDS011;4308;51.294;6.590;2023-11-18T09:20:10;21.70;;;14.17;;
8540;SDS011;4308;51.294;6.590;2023-11-18T09:22:37;22.97;;;14.77;;
8540;SDS011;4308;51.294;6.590;2023-11-18T09:25:05;20.53;;;13.40;;
8540;SDS011;4308;51.294;6.590;2023-11-18T09:27:33;21.50;;;14.43;;
8540;SDS011;4308;51.294;6.590;2023-11-18T09:30:00;21.80;;;14.27;;
8540;SDS011;4308;51.294;6.590;2023-11-18T09:32:28;19.87;;;14.07;;
8540;SDS011;4308;51.294;6.590;2023-11-18T09:34:56;18.60;;;13.73;;
8540;SDS011;4308;51.294;6.590;2023-11-18T09:37:23;19.07;;;12.87;;
8540;SDS011;4308;51.294;6.590;2023-11-18T09:39:51;18.40;;;13.57;;
8540;SDS011;4308;51.294;6.590;2023-11-18T09:42:19;18.77;;;12.90;;
8540;SDS011;4308;51.294;6.590;2023-11-18T09:44:46;18.33;;;13.20;;
8540;SDS011;4308;51.294;6.590;2023-11-18T09:47:14;24.07;;;15.27;;
8540;SDS011;4308;51.294;6.590;2023-11-18T09:49:44;29.57;;;18.20;;
8540;SDS011;4308;51.294;6.590;2023-11-18T09:52:15;24.10;;;16.83;;
8540;SDS011;4308;51.294;6.590;2023-11-18T09:54:56;17.50;;;12.67;;
8540;SDS011;4308;51.294;6.590;2023-11-18T09:57:32;19.33;;;13.60;;
8540;SDS011;4308;51.294;6.590;2023-11-18T10:00:01;18.70;;;13.80;;
8540;SDS011;4308;51.294;6.590;2023-11-18T10:02:29;20.13;;;12.97;;
8540;SDS011;4308;51.294;6.590;2023-11-18T10:04:57;18.20;;;11.77;;
8540;SDS011;4308;51.294;6.590;2023-11-18T10:07:26;16.30;;;12.97;;
8540;SDS011;4308;51.294;6.590;2023-11-18T10:09:54;18.90;;;12.30;;
8540;SDS011;4308;51.294;6.590;2023-11-18T10:12:22;18.07;;;13.10;;
8540;SDS011;4308;51.294;6.590;2023-11-18T10:14:49;17.27;;;12.33;;
8540;SDS011;4308;51.294;6.590;2023-11-18T10:17:17;17.23;;;12.17;;
8540;SDS011;4308;51.294;6.590;2023-11-18T10:19:52;13.50;;;10.77;;
8540;SDS011;4308;51.294;6.590;2023-11-18T10:22:22;18.13;;;12.87;;
8540;SDS011;4308;51.294;6.590;2023-11-18T10:24:49;14.03;;;11.20;;
8540;SDS011;4308;51.294;6.590;2023-11-18T10:27:17;16.83;;;11.27;;
8540;SDS011;4308;51.294;6.590;2023-11-18T10:29:45;16.37;;;11.10;;
8540;SDS011;4308;51.294;6.590;2023-11-18T10:32:12;14.77;;;11.47;;
8540;SDS011;4308;51.294;6.590;2023-11-18T10:34:40;15.13;;;10.67;;
8540;SDS011;4308;51.294;6.590;2023-11-18T10:37:08;17.43;;;11.70;;
8540;SDS011;4308;51.294;6.590;2023-11-18T10:39:36;16.73;;;11.47;;
8540;SDS011;4308;51.294;6.590;2023-11-18T10:42:04;15.43;;;10.07;;
8540;SDS011;4308;51.294;6.590;2023-11-18T10:44:32;18.87;;;11.77;;
8540;SDS011;4308;51.294;6.590;2023-11-18T10:46:59;15.07;;;10.23;;
8540;SDS011;4308;51.294;6.590;2023-11-18T10:49:27;17.93;;;11.37;;
8540;SDS011;4308;51.294;6.590;2023-11-18T10:51:55;15.40;;;10.43;;
8540;SDS011;4308;51.294;6.590;2023-11-18T10:54:23;18.40;;;11.13;;
8540;SDS011;4308;51.294;6.590;2023-11-18T10:56:51;14.90;;;10.93;;
8540;SDS011;4308;51.294;6.590;2023-11-18T10:59:18;15.70;;;11.67;;
8540;SDS011;4308;51.294;6.590;2023-11-18T11:01:46;15.80;;;9.90;;
8540;SDS011;4308;51.294;6.590;2023-11-18T11:04:14;15.43;;;10.27;;
8540;SDS011;4308;51.294;6.590;2023-11-18T11:06:43;19.50;;;11.40;;
8540;SDS011;4308;51.294;6.590;2023-11-18T11:09:11;15.67;;;11.17;;
8540;SDS011;4308;51.294;6.590;2023-11-18T11:11:39;13.73;;;10.23;;
8540;SDS011;4308;51.294;6.590;2023-11-18T11:14:07;14.50;;;11.43;;
8540;SDS011;4308;51.294;6.590;2023-11-18T11:16:37;16.83;;;10.87;;
8540;SDS011;4308;51.294;6.590;2023-11-18T11:19:07;17.33;;;10.67;;
8540;SDS011;4308;51.294;6.590;2023-11-18T11:21:42;15.60;;;10.27;;
8540;SDS011;4308;51.294;6.590;2023-11-18T11:24:11;12.97;;;10.03;;
8540;SDS011;4308;51.294;6.590;2023-11-18T11:26:48;15.90;;;10.67;;
8540;SDS011;4308;51.294;6.590;2023-11-18T11:29:29;14.07;;;9.83;;
8540;SDS011;4308;51.294;6.590;2023-11-18T11:34:29;17.57;;;11.63;;
8540;SDS011;4308;51.294;6.590;2023-11-18T11:36:57;14.93;;;9.60;;
8540;SDS011;4308;51.294;6.590;2023-11-18T11:39:26;14.97;;;10.67;;
8540;SDS011;4308;51.294;6.590;2023-11-18T11:41:54;12.97;;;9.93;;
8540;SDS011;4308;51.294;6.590;2023-11-18T11:44:22;19.17;;;11.13;;
8540;SDS011;4308;51.294;6.590;2023-11-18T11:46:50;15.40;;;10.43;;
8540;SDS011;4308;51.294;6.590;2023-11-18T11:49:19;12.87;;;9.80;;
8540;SDS011;4308;51.294;6.590;2023-11-18T11:51:48;14.17;;;10.17;;
8540;SDS011;4308;51.294;6.590;2023-11-18T11:54:18;13.97;;;9.93;;
8540;SDS011;4308;51.294;6.590;2023-11-18T11:56:48;13.97;;;10.40;;
8540;SDS011;4308;51.294;6.590;2023-11-18T11:59:16;14.13;;;10.87;;
8540;SDS011;4308;51.294;6.590;2023-11-18T12:01:44;16.20;;;10.93;;
8540;SDS011;4308;51.294;6.590;2023-11-18T12:04:15;14.40;;;9.50;;
8540;SDS011;4308;51.294;6.590;2023-11-18T12:06:43;14.67;;;10.27;;
8540;SDS011;4308;51.294;6.590;2023-11-18T12:09:11;14.47;;;9.77;;
8540;SDS011;4308;51.294;6.590;2023-11-18T12:11:40;14.23;;;9.20;;
8540;SDS011;4308;51.294;6.590;2023-11-18T12:14:09;13.17;;;8.80;;
8540;SDS011;4308;51.294;6.590;2023-11-18T12:21:57;15.13;;;9.43;;
8540;SDS011;4308;51.294;6.590;2023-11-18T12:24:24;13.20;;;9.07;;
8540;SDS011;4308;51.294;6.590;2023-11-18T12:26:52;14.17;;;9.50;;
8540;SDS011;4308;51.294;6.590;2023-11-18T12:29:32;12.87;;;9.13;;
8540;SDS011;4308;51.294;6.590;2023-11-18T12:32:00;15.37;;;9.63;;
8540;SDS011;4308;51.294;6.590;2023-11-18T12:37:23;12.87;;;8.90;;
8540;SDS011;4308;51.294;6.590;2023-11-18T12:40:04;15.93;;;9.37;;
8540;SDS011;4308;51.294;6.590;2023-11-18T12:42:58;11.90;;;8.60;;
8540;SDS011;4308;51.294;6.590;2023-11-18T12:45:42;13.10;;;9.47;;
8540;SDS011;4308;51.294;6.590;2023-11-18T12:48:13;12.03;;;8.37;;
8540;SDS011;4308;51.294;6.590;2023-11-18T12:50:41;12.73;;;8.83;;
8540;SDS011;4308;51.294;6.590;2023-11-18T12:53:09;13.63;;;8.67;;
8540;SDS011;4308;51.294;6.590;2023-11-18T12:55:37;14.53;;;8.37;;
8540;SDS011;4308;51.294;6.590;2023-11-18T12:58:07;12.00;;;8.77;;
8540;SDS011;4308;51.294;6.590;2023-11-18T13:00:34;14.93;;;8.60;;
8540;SDS011;4308;51.294;6.590;2023-11-18T13:03:02;16.13;;;8.20;;
8540;SDS011;4308;51.294;6.590;2023-11-18T13:05:30;14.87;;;8.90;;
8540;SDS011;4308;51.294;6.590;2023-11-18T13:07:57;12.53;;;7.47;;
8540;SDS011;4308;51.294;6.590;2023-11-18T13:10:25;13.97;;;7.90;;
8540;SDS011;4308;51.294;6.590;2023-11-18T13:12:53;11.10;;;7.60;;
8540;SDS011;4308;51.294;6.590;2023-11-18T13:15:21;12.43;;;7.80;;
8540;SDS011;4308;51.294;6.590;2023-11-18T13:18:01;12.17;;;6.97;;
8540;SDS011;4308;51.294;6.590;2023-11-18T13:20:29;11.97;;;7.17;;
8540;SDS011;4308;51.294;6.590;2023-11-18T13:22:57;13.03;;;7.57;;
8540;SDS011;4308;51.294;6.590;2023-11-18T13:25:24;10.07;;;7.30;;
8540;SDS011;4308;51.294;6.590;2023-11-18T13:27:52;10.33;;;7.03;;
8540;SDS011;4308;51.294;6.590;2023-11-18T13:30:20;13.60;;;7.07;;
8540;SDS011;4308;51.294;6.590;2023-11-18T13:32:47;9.93;;;7.43;;
8540;SDS011;4308;51.294;6.590;2023-11-18T13:35:16;10.70;;;6.90;;
8540;SDS011;4308;51.294;6.590;2023-11-18T13:37:45;9.00;;;6.47;;
8540;SDS011;4308;51.294;6.590;2023-11-18T13:40:14;8.40;;;6.17;;
8540;SDS011;4308;51.294;6.590;2023-11-18T13:42:41;8.90;;;6.30;;
8540;SDS011;4308;51.294;6.590;2023-11-18T13:45:11;10.07;;;5.73;;
8540;SDS011;4308;51.294;6.590;2023-11-18T13:47:40;7.63;;;5.77;;
8540;SDS011;4308;51.294;6.590;2023-11-18T13:50:12;8.53;;;5.20;;
8540;SDS011;4308;51.294;6.590;2023-11-18T13:52:39;5.80;;;4.60;;
8540;SDS011;4308;51.294;6.590;2023-11-18T13:55:07;7.47;;;4.20;;
8540;SDS011;4308;51.294;6.590;2023-11-18T13:57:35;8.10;;;4.80;;
8540;SDS011;4308;51.294;6.590;2023-11-18T14:00:02;6.47;;;4.90;;
8540;SDS011;4308;51.294;6.590;2023-11-18T14:02:31;8.80;;;4.70;;
8540;SDS011;4308;51.294;6.590;2023-11-18T14:04:59;8.03;;;4.50;;
8540;SDS011;4308;51.294;6.590;2023-11-18T14:07:27;7.00;;;4.40;;
8540;SDS011;4308;51.294;6.590;2023-11-18T14:09:54;5.80;;;4.70;;
8540;SDS011;4308;51.294;6.590;2023-11-18T14:12:22;9.03;;;4.90;;
8540;SDS011;4308;51.294;6.590;2023-11-18T14:14:50;11.47;;;5.13;;
8540;SDS011;4308;51.294;6.590;2023-11-18T14:17:17;7.60;;;4.30;;
8540;SDS011;4308;51.294;6.590;2023-11-18T14:19:45;9.30;;;5.10;;
8540;SDS011;4308;51.294;6.590;2023-11-18T14:22:12;8.90;;;4.77;;
8540;SDS011;4308;51.294;6.590;2023-11-18T14:24:40;7.90;;;4.93;;
8540;SDS011;4308;51.294;6.590;2023-11-18T14:27:07;7.20;;;5.40;;
8540;SDS011;4308;51.294;6.590;2023-11-18T14:29:35;10.47;;;5.50;;
8540;SDS011;4308;51.294;6.590;2023-11-18T14:32:03;7.43;;;5.37;;
8540;SDS011;4308;51.294;6.590;2023-11-18T14:34:31;8.77;;;4.90;;
8540;SDS011;4308;51.294;6.590;2023-11-18T14:36:58;11.10;;;5.30;;
8540;SDS011;4308;51.294;6.590;2023-11-18T14:39:26;12.73;;;5.50;;
8540;SDS011;4308;51.294;6.590;2023-11-18T14:41:54;9.67;;;5.57;;
8540;SDS011;4308;51.294;6.590;2023-11-18T14:44:21;8.77;;;5.00;;
8540;SDS011;4308;51.294;6.590;2023-11-18T14:46:49;11.23;;;5.50;;
8540;SDS011;4308;51.294;6.590;2023-11-18T14:49:17;12.03;;;5.67;;
8540;SDS011;4308;51.294;6.590;2023-11-18T14:51:44;8.80;;;5.67;;
8540;SDS011;4308;51.294;6.590;2023-11-18T14:54:12;8.03;;;5.00;;
8540;SDS011;4308;51.294;6.590;2023-11-18T14:56:40;13.27;;;5.77;;
8540;SDS011;4308;51.294;6.590;2023-11-18T14:59:07;8.93;;;5.80;;
8540;SDS011;4308;51.294;6.590;2023-11-18T15:01:35;12.07;;;6.30;;
8540;SDS011;4308;51.294;6.590;2023-11-18T15:04:03;10.40;;;5.90;;
8540;SDS011;4308;51.294;6.590;2023-11-18T15:06:30;13.13;;;6.57;;
8540;SDS011;4308;51.294;6.590;2023-11-18T15:08:58;12.07;;;6.40;;